sensor_id;sensor_type;location;lat;lon;timestamp;temperature;humidity
10678;DHT22;5387;48.722;9.110;2022-12-20T00:01:22;3.40;99.90
10678;DHT22;5387;48.722;9.110;2022-12-20T00:03:51;3.30;99.90
10678;DHT22;5387;48.722;9.110;2022-12-20T00:06:18;3.30;99.90
10678;DHT22;5387;48.722;9.110;2022-12-20T00:08:46;3.30;99.90
10678;DHT22;5387;48.722;9.110;2022-12-20T00:11:13;3.30;99.90
10678;DHT22;5387;48.722;9.110;2022-12-20T00:13:40;3.30;99.90
10678;DHT22;5387;48.722;9.110;2022-12-20T00:16:08;3.30;99.90
10678;DHT22;5387;48.722;9.110;2022-12-20T00:18:38;3.10;99.90
10678;DHT22;5387;48.722;9.110;2022-12-20T00:21:07;3.10;99.90
10678;DHT22;5387;48.722;9.110;2022-12-20T00:23:35;3.10;99.90
10678;DHT22;5387;48.722;9.110;2022-12-20T00:26:04;3.20;99.90
10678;DHT22;5387;48.722;9.110;2022-12-20T00:28:31;3.20;99.90
10678;DHT22;5387;48.722;9.110;2022-12-20T00:30:58;3.10;99.90
10678;DHT22;5387;48.722;9.110;2022-12-20T00:33:25;3.00;99.90
10678;DHT22;5387;48.722;9.110;2022-12-20T00:35:55;3.10;99.90
10678;DHT22;5387;48.722;9.110;2022-12-20T00:38:22;2.80;99.90
10678;DHT22;5387;48.722;9.110;2022-12-20T00:40:58;2.90;99.90
10678;DHT22;5387;48.722;9.110;2022-12-20T00:43:25;2.90;99.90
10678;DHT22;5387;48.722;9.110;2022-12-20T00:45:52;2.90;99.90
10678;DHT22;5387;48.722;9.110;2022-12-20T00:48:19;2.80;99.90
10678;DHT22;5387;48.722;9.110;2022-12-20T00:50:46;2.90;99.90
10678;DHT22;5387;48.722;9.110;2022-12-20T00:53:14;2.90;99.90
10678;DHT22;5387;48.722;9.110;2022-12-20T00:55:41;3.00;99.90
10678;DHT22;5387;48.722;9.110;2022-12-20T00:58:08;2.90;99.90
10678;DHT22;5387;48.722;9.110;2022-12-20T01:00:35;2.90;99.90
10678;DHT22;5387;48.722;9.110;2022-12-20T01:03:02;3.00;99.90
10678;DHT22;5387;48.722;9.110;2022-12-20T01:05:29;3.00;99.90
10678;DHT22;5387;48.722;9.110;2022-12-20T01:07:56;3.00;99.90
10678;DHT22;5387;48.722;9.110;2022-12-20T01:10:25;3.00;99.90
10678;DHT22;5387;48.722;9.110;2022-12-20T01:12:52;3.00;99.90
10678;DHT22;5387;48.722;9.110;2022-12-20T01:15:18;3.10;99.90
10678;DHT22;5387;48.722;9.110;2022-12-20T01:17:45;2.90;99.90
10678;DHT22;5387;48.722;9.110;2022-12-20T01:20:13;3.00;99.90
10678;DHT22;5387;48.722;9.110;2022-12-20T01:22:40;3.10;99.90
10678;DHT22;5387;48.722;9.110;2022-12-20T01:25:07;3.00;99.90
10678;DHT22;5387;48.722;9.110;2022-12-20T01:27:35;3.10;99.90
10678;DHT22;5387;48.722;9.110;2022-12-20T01:30:02;3.30;99.90
10678;DHT22;5387;48.722;9.110;2022-12-20T01:32:29;3.10;99.90
10678;DHT22;5387;48.722;9.110;2022-12-20T01:34:56;3.00;99.90
10678;DHT22;5387;48.722;9.110;2022-12-20T01:37:22;3.00;99.90
10678;DHT22;5387;48.722;9.110;2022-12-20T01:39:49;3.00;99.90
10678;DHT22;5387;48.722;9.110;2022-12-20T01:42:16;3.20;99.90
10678;DHT22;5387;48.722;9.110;2022-12-20T01:44:58;3.00;99.90
10678;DHT22;5387;48.722;9.110;2022-12-20T01:47:29;2.90;99.90
10678;DHT22;5387;48.722;9.110;2022-12-20T01:49:57;2.90;99.90
10678;DHT22;5387;48.722;9.110;2022-12-20T01:52:29;2.80;99.90
10678;DHT22;5387;48.722;9.110;2022-12-20T01:55:03;2.80;99.90
10678;DHT22;5387;48.722;9.110;2022-12-20T01:57:33;2.80;99.90
10678;DHT22;5387;48.722;9.110;2022-12-20T02:00:04;2.80;99.90
10678;DHT22;5387;48.722;9.110;2022-12-20T02:02:33;2.80;99.90
10678;DHT22;5387;48.722;9.110;2022-12-20T02:05:00;2.70;99.90
10678;DHT22;5387;48.722;9.110;2022-12-20T02:07:29;2.70;99.90
10678;DHT22;5387;48.722;9.110;2022-12-20T02:09:57;2.60;99.90
10678;DHT22;5387;48.722;9.110;2022-12-20T02:12:29;2.60;99.90
10678;DHT22;5387;48.722;9.110;2022-12-20T02:15:08;2.60;99.90
10678;DHT22;5387;48.722;9.110;2022-12-20T02:17:44;2.60;99.90
10678;DHT22;5387;48.722;9.110;2022-12-20T02:20:36;2.60;99.90
10678;DHT22;5387;48.722;9.110;2022-12-20T02:23:24;2.70;99.90
10678;DHT22;5387;48.722;9.110;2022-12-20T02:26:09;2.70;99.90
10678;DHT22;5387;48.722;9.110;2022-12-20T02:28:54;2.80;99.90
10678;DHT22;5387;48.722;9.110;2022-12-20T02:31:27;2.70;99.90
10678;DHT22;5387;48.722;9.110;2022-12-20T02:33:56;2.70;99.90
10678;DHT22;5387;48.722;9.110;2022-12-20T02:36:24;2.70;99.90
10678;DHT22;5387;48.722;9.110;2022-12-20T02:38:51;2.60;99.90
10678;DHT22;5387;48.722;9.110;2022-12-20T02:41:22;2.60;99.90
10678;DHT22;5387;48.722;9.110;2022-12-20T02:43:55;2.70;99.90
10678;DHT22;5387;48.722;9.110;2022-12-20T02:46:43;2.60;99.90
10678;DHT22;5387;48.722;9.110;2022-12-20T02:49:14;2.60;99.90
10678;DHT22;5387;48.722;9.110;2022-12-20T02:51:43;2.60;99.90
10678;DHT22;5387;48.722;9.110;2022-12-20T02:54:12;2.50;99.90
10678;DHT22;5387;48.722;9.110;2022-12-20T02:56:42;2.50;99.90
10678;DHT22;5387;48.722;9.110;2022-12-20T02:59:16;2.60;99.90
10678;DHT22;5387;48.722;9.110;2022-12-20T03:01:48;2.60;99.90
10678;DHT22;5387;48.722;9.110;2022-12-20T03:04:17;2.60;99.90
10678;DHT22;5387;48.722;9.110;2022-12-20T03:06:56;2.60;99.90
10678;DHT22;5387;48.722;9.110;2022-12-20T03:09:23;2.50;99.90
10678;DHT22;5387;48.722;9.110;2022-12-20T03:11:50;2.50;99.90
10678;DHT22;5387;48.722;9.110;2022-12-20T03:14:17;2.50;99.90
10678;DHT22;5387;48.722;9.110;2022-12-20T03:16:45;2.60;99.90
10678;DHT22;5387;48.722;9.110;2022-12-20T03:19:12;2.60;99.90
10678;DHT22;5387;48.722;9.110;2022-12-20T03:21:38;2.70;99.90
10678;DHT22;5387;48.722;9.110;2022-12-20T03:24:06;3.10;99.90
10678;DHT22;5387;48.722;9.110;2022-12-20T03:26:33;3.80;99.90
10678;DHT22;5387;48.722;9.110;2022-12-20T03:29:00;4.20;99.90
10678;DHT22;5387;48.722;9.110;2022-12-20T03:31:27;4.50;99.90
10678;DHT22;5387;48.722;9.110;2022-12-20T03:33:55;4.60;99.90
10678;DHT22;5387;48.722;9.110;2022-12-20T03:36:22;4.80;99.90
10678;DHT22;5387;48.722;9.110;2022-12-20T03:38:49;4.90;99.90
10678;DHT22;5387;48.722;9.110;2022-12-20T03:41:16;5.00;99.90
10678;DHT22;5387;48.722;9.110;2022-12-20T03:43:43;5.30;99.90
10678;DHT22;5387;48.722;9.110;2022-12-20T03:46:10;5.60;99.90
10678;DHT22;5387;48.722;9.110;2022-12-20T03:48:37;5.60;99.90
10678;DHT22;5387;48.722;9.110;2022-12-20T03:51:05;5.70;99.90
10678;DHT22;5387;48.722;9.110;2022-12-20T03:53:32;5.90;99.90
10678;DHT22;5387;48.722;9.110;2022-12-20T03:55:59;5.90;99.90
10678;DHT22;5387;48.722;9.110;2022-12-20T03:58:26;5.80;99.90
10678;DHT22;5387;48.722;9.110;2022-12-20T04:00:53;5.90;99.90
10678;DHT22;5387;48.722;9.110;2022-12-20T04:03:21;5.80;99.90
10678;DHT22;5387;48.722;9.110;2022-12-20T04:05:48;5.90;99.90
10678;DHT22;5387;48.722;9.110;2022-12-20T04:08:16;5.90;99.90
10678;DHT22;5387;48.722;9.110;2022-12-20T04:10:43;5.90;99.90
10678;DHT22;5387;48.722;9.110;2022-12-20T04:13:24;5.80;99.90
10678;DHT22;5387;48.722;9.110;2022-12-20T04:15:50;5.90;99.90
10678;DHT22;5387;48.722;9.110;2022-12-20T04:18:17;5.90;99.90
10678;DHT22;5387;48.722;9.110;2022-12-20T04:20:44;5.80;99.90
10678;DHT22;5387;48.722;9.110;2022-12-20T04:23:11;5.90;99.90
10678;DHT22;5387;48.722;9.110;2022-12-20T04:25:40;5.90;99.90
10678;DHT22;5387;48.722;9.110;2022-12-20T04:28:07;6.00;99.90
10678;DHT22;5387;48.722;9.110;2022-12-20T04:30:33;6.10;99.90
10678;DHT22;5387;48.722;9.110;2022-12-20T04:33:00;6.10;99.90
10678;DHT22;5387;48.722;9.110;2022-12-20T04:35:28;6.20;99.90
10678;DHT22;5387;48.722;9.110;2022-12-20T04:37:55;6.20;99.90
10678;DHT22;5387;48.722;9.110;2022-12-20T04:40:22;6.30;99.90
10678;DHT22;5387;48.722;9.110;2022-12-20T04:42:50;6.30;99.90
10678;DHT22;5387;48.722;9.110;2022-12-20T04:45:17;6.40;99.90
10678;DHT22;5387;48.722;9.110;2022-12-20T04:47:44;6.60;99.90
10678;DHT22;5387;48.722;9.110;2022-12-20T04:50:10;6.70;99.90
10678;DHT22;5387;48.722;9.110;2022-12-20T04:52:37;6.80;99.90
10678;DHT22;5387;48.722;9.110;2022-12-20T04:55:21;6.70;99.90
10678;DHT22;5387;48.722;9.110;2022-12-20T04:57:49;6.70;99.90
10678;DHT22;5387;48.722;9.110;2022-12-20T05:00:17;6.70;99.90
10678;DHT22;5387;48.722;9.110;2022-12-20T05:02:44;6.70;99.90
10678;DHT22;5387;48.722;9.110;2022-12-20T05:05:11;6.70;99.90
10678;DHT22;5387;48.722;9.110;2022-12-20T05:07:38;6.70;99.90
10678;DHT22;5387;48.722;9.110;2022-12-20T05:10:06;6.60;99.90
10678;DHT22;5387;48.722;9.110;2022-12-20T05:12:32;6.70;99.90
10678;DHT22;5387;48.722;9.110;2022-12-20T05:15:01;6.70;99.90
10678;DHT22;5387;48.722;9.110;2022-12-20T05:17:27;6.80;99.90
10678;DHT22;5387;48.722;9.110;2022-12-20T05:19:54;6.80;99.90
10678;DHT22;5387;48.722;9.110;2022-12-20T05:22:21;6.90;99.90
10678;DHT22;5387;48.722;9.110;2022-12-20T05:25:07;6.90;99.90
10678;DHT22;5387;48.722;9.110;2022-12-20T05:28:00;6.80;99.90
10678;DHT22;5387;48.722;9.110;2022-12-20T05:30:28;6.70;99.90
10678;DHT22;5387;48.722;9.110;2022-12-20T05:32:55;6.80;99.90
10678;DHT22;5387;48.722;9.110;2022-12-20T05:35:22;6.80;99.90
10678;DHT22;5387;48.722;9.110;2022-12-20T05:37:49;6.80;99.90
10678;DHT22;5387;48.722;9.110;2022-12-20T05:40:15;6.80;99.90
10678;DHT22;5387;48.722;9.110;2022-12-20T05:42:42;6.90;99.90
10678;DHT22;5387;48.722;9.110;2022-12-20T05:45:10;6.90;99.90
10678;DHT22;5387;48.722;9.110;2022-12-20T05:47:38;6.90;99.90
10678;DHT22;5387;48.722;9.110;2022-12-20T05:50:06;6.90;99.90
10678;DHT22;5387;48.722;9.110;2022-12-20T05:52:33;6.80;99.90
10678;DHT22;5387;48.722;9.110;2022-12-20T05:55:00;6.80;99.90
10678;DHT22;5387;48.722;9.110;2022-12-20T05:57:26;6.70;99.90
10678;DHT22;5387;48.722;9.110;2022-12-20T05:59:53;6.60;99.90
10678;DHT22;5387;48.722;9.110;2022-12-20T06:02:20;6.60;99.90
10678;DHT22;5387;48.722;9.110;2022-12-20T06:04:48;6.50;99.90
10678;DHT22;5387;48.722;9.110;2022-12-20T06:07:15;6.40;99.90
10678;DHT22;5387;48.722;9.110;2022-12-20T06:09:43;6.50;99.90
10678;DHT22;5387;48.722;9.110;2022-12-20T06:12:09;6.50;99.90
10678;DHT22;5387;48.722;9.110;2022-12-20T06:14:36;6.60;99.90
10678;DHT22;5387;48.722;9.110;2022-12-20T06:17:04;6.70;99.90
10678;DHT22;5387;48.722;9.110;2022-12-20T06:19:31;6.60;99.90
10678;DHT22;5387;48.722;9.110;2022-12-20T06:21:59;6.60;99.90
10678;DHT22;5387;48.722;9.110;2022-12-20T06:24:26;6.80;99.90
10678;DHT22;5387;48.722;9.110;2022-12-20T06:26:53;6.60;99.90
10678;DHT22;5387;48.722;9.110;2022-12-20T06:29:20;6.60;99.90
10678;DHT22;5387;48.722;9.110;2022-12-20T06:31:49;6.60;99.90
10678;DHT22;5387;48.722;9.110;2022-12-20T06:34:16;6.60;99.90
10678;DHT22;5387;48.722;9.110;2022-12-20T06:36:43;6.60;99.90
10678;DHT22;5387;48.722;9.110;2022-12-20T06:39:11;6.60;99.90
10678;DHT22;5387;48.722;9.110;2022-12-20T06:41:38;6.70;99.90
10678;DHT22;5387;48.722;9.110;2022-12-20T06:44:05;6.70;99.90
10678;DHT22;5387;48.722;9.110;2022-12-20T06:46:32;6.70;99.90
10678;DHT22;5387;48.722;9.110;2022-12-20T06:48:59;6.70;99.90
10678;DHT22;5387;48.722;9.110;2022-12-20T06:51:26;6.60;99.90
10678;DHT22;5387;48.722;9.110;2022-12-20T06:53:53;6.70;99.90
10678;DHT22;5387;48.722;9.110;2022-12-20T06:56:21;6.80;99.90
10678;DHT22;5387;48.722;9.110;2022-12-20T06:58:48;6.80;99.90
10678;DHT22;5387;48.722;9.110;2022-12-20T07:01:14;6.90;99.90
10678;DHT22;5387;48.722;9.110;2022-12-20T07:03:41;6.90;99.90
10678;DHT22;5387;48.722;9.110;2022-12-20T07:06:08;7.00;99.90
10678;DHT22;5387;48.722;9.110;2022-12-20T07:08:35;7.00;99.90
10678;DHT22;5387;48.722;9.110;2022-12-20T07:11:05;7.10;99.90
10678;DHT22;5387;48.722;9.110;2022-12-20T07:13:34;7.10;99.90
10678;DHT22;5387;48.722;9.110;2022-12-20T07:16:01;7.00;99.90
10678;DHT22;5387;48.722;9.110;2022-12-20T07:18:28;7.20;99.90
10678;DHT22;5387;48.722;9.110;2022-12-20T07:20:58;7.40;99.90
10678;DHT22;5387;48.722;9.110;2022-12-20T07:23:26;7.50;99.90
10678;DHT22;5387;48.722;9.110;2022-12-20T07:25:53;7.60;99.90
10678;DHT22;5387;48.722;9.110;2022-12-20T07:28:21;7.60;99.90
10678;DHT22;5387;48.722;9.110;2022-12-20T07:30:49;7.60;99.90
10678;DHT22;5387;48.722;9.110;2022-12-20T07:33:16;7.70;99.90
10678;DHT22;5387;48.722;9.110;2022-12-20T07:35:43;7.70;99.90
10678;DHT22;5387;48.722;9.110;2022-12-20T07:38:11;7.70;99.90
10678;DHT22;5387;48.722;9.110;2022-12-20T07:40:39;7.90;99.90
10678;DHT22;5387;48.722;9.110;2022-12-20T07:43:06;7.80;99.90
10678;DHT22;5387;48.722;9.110;2022-12-20T07:45:33;7.80;99.90
10678;DHT22;5387;48.722;9.110;2022-12-20T07:48:01;7.80;99.90
10678;DHT22;5387;48.722;9.110;2022-12-20T07:50:28;7.80;99.90
10678;DHT22;5387;48.722;9.110;2022-12-20T07:52:56;7.70;99.90
10678;DHT22;5387;48.722;9.110;2022-12-20T07:55:24;7.60;99.90
10678;DHT22;5387;48.722;9.110;2022-12-20T07:57:54;7.70;99.90
10678;DHT22;5387;48.722;9.110;2022-12-20T08:00:23;7.60;99.90
10678;DHT22;5387;48.722;9.110;2022-12-20T08:02:54;7.60;99.90
10678;DHT22;5387;48.722;9.110;2022-12-20T08:05:23;7.60;99.90
10678;DHT22;5387;48.722;9.110;2022-12-20T08:07:51;7.70;99.90
10678;DHT22;5387;48.722;9.110;2022-12-20T08:10:19;7.70;99.90
10678;DHT22;5387;48.722;9.110;2022-12-20T08:12:47;7.80;99.90
10678;DHT22;5387;48.722;9.110;2022-12-20T08:15:14;7.80;99.90
10678;DHT22;5387;48.722;9.110;2022-12-20T08:17:41;7.80;99.90
10678;DHT22;5387;48.722;9.110;2022-12-20T08:20:09;7.80;99.90
10678;DHT22;5387;48.722;9.110;2022-12-20T08:22:37;7.90;99.90
10678;DHT22;5387;48.722;9.110;2022-12-20T08:25:05;8.00;99.90
10678;DHT22;5387;48.722;9.110;2022-12-20T08:27:32;8.00;99.90
10678;DHT22;5387;48.722;9.110;2022-12-20T08:29:59;8.00;99.90
10678;DHT22;5387;48.722;9.110;2022-12-20T08:32:26;8.00;99.90
10678;DHT22;5387;48.722;9.110;2022-12-20T08:34:53;8.00;99.90
10678;DHT22;5387;48.722;9.110;2022-12-20T08:37:20;8.00;99.90
10678;DHT22;5387;48.722;9.110;2022-12-20T08:39:48;8.10;99.90
10678;DHT22;5387;48.722;9.110;2022-12-20T08:42:15;8.00;99.90
10678;DHT22;5387;48.722;9.110;2022-12-20T08:44:42;8.00;99.90
10678;DHT22;5387;48.722;9.110;2022-12-20T08:47:09;8.10;99.90
10678;DHT22;5387;48.722;9.110;2022-12-20T08:49:36;8.30;99.90
10678;DHT22;5387;48.722;9.110;2022-12-20T08:52:03;8.30;99.90
10678;DHT22;5387;48.722;9.110;2022-12-20T08:54:29;8.20;99.90
10678;DHT22;5387;48.722;9.110;2022-12-20T08:56:58;8.20;99.90
10678;DHT22;5387;48.722;9.110;2022-12-20T08:59:24;8.20;99.90
10678;DHT22;5387;48.722;9.110;2022-12-20T09:01:51;8.30;99.90
10678;DHT22;5387;48.722;9.110;2022-12-20T09:04:19;8.10;99.90
10678;DHT22;5387;48.722;9.110;2022-12-20T09:06:46;8.10;99.90
10678;DHT22;5387;48.722;9.110;2022-12-20T09:09:12;8.10;99.90
10678;DHT22;5387;48.722;9.110;2022-12-20T09:11:41;8.10;99.90
10678;DHT22;5387;48.722;9.110;2022-12-20T09:14:09;8.10;99.90
10678;DHT22;5387;48.722;9.110;2022-12-20T09:16:36;8.20;99.90
10678;DHT22;5387;48.722;9.110;2022-12-20T09:19:03;8.00;99.90
10678;DHT22;5387;48.722;9.110;2022-12-20T09:21:30;8.00;99.90
10678;DHT22;5387;48.722;9.110;2022-12-20T09:23:57;8.00;99.90
10678;DHT22;5387;48.722;9.110;2022-12-20T09:26:23;8.00;99.90
10678;DHT22;5387;48.722;9.110;2022-12-20T09:28:51;7.90;99.90
10678;DHT22;5387;48.722;9.110;2022-12-20T09:31:21;7.80;99.90
10678;DHT22;5387;48.722;9.110;2022-12-20T09:33:48;7.70;99.90
10678;DHT22;5387;48.722;9.110;2022-12-20T09:36:16;7.70;99.90
10678;DHT22;5387;48.722;9.110;2022-12-20T09:38:44;7.70;99.90
10678;DHT22;5387;48.722;9.110;2022-12-20T09:41:21;7.70;99.90
10678;DHT22;5387;48.722;9.110;2022-12-20T09:43:50;7.80;99.90
10678;DHT22;5387;48.722;9.110;2022-12-20T09:46:19;7.80;99.90
10678;DHT22;5387;48.722;9.110;2022-12-20T09:48:46;7.80;99.90
10678;DHT22;5387;48.722;9.110;2022-12-20T09:51:28;7.70;99.90
10678;DHT22;5387;48.722;9.110;2022-12-20T09:54:07;7.80;99.90
10678;DHT22;5387;48.722;9.110;2022-12-20T09:56:39;7.90;99.90
10678;DHT22;5387;48.722;9.110;2022-12-20T09:59:10;8.00;99.90
10678;DHT22;5387;48.722;9.110;2022-12-20T10:01:43;8.20;99.90
10678;DHT22;5387;48.722;9.110;2022-12-20T10:04:21;8.40;99.90
10678;DHT22;5387;48.722;9.110;2022-12-20T10:06:59;8.30;99.90
10678;DHT22;5387;48.722;9.110;2022-12-20T10:09:46;8.30;99.90
10678;DHT22;5387;48.722;9.110;2022-12-20T10:12:25;8.30;99.90
10678;DHT22;5387;48.722;9.110;2022-12-20T10:15:08;8.40;99.90
10678;DHT22;5387;48.722;9.110;2022-12-20T10:20:37;8.40;99.90
10678;DHT22;5387;48.722;9.110;2022-12-20T10:23:12;8.30;99.90
10678;DHT22;5387;48.722;9.110;2022-12-20T10:25:41;8.40;99.90
10678;DHT22;5387;48.722;9.110;2022-12-20T10:28:12;8.40;99.90
10678;DHT22;5387;48.722;9.110;2022-12-20T10:30:40;8.40;99.90
10678;DHT22;5387;48.722;9.110;2022-12-20T10:33:15;8.50;99.90
10678;DHT22;5387;48.722;9.110;2022-12-20T10:35:44;8.50;99.90
10678;DHT22;5387;48.722;9.110;2022-12-20T10:38:12;8.50;99.90
10678;DHT22;5387;48.722;9.110;2022-12-20T10:40:43;8.50;99.90
10678;DHT22;5387;48.722;9.110;2022-12-20T10:43:15;8.50;99.90
10678;DHT22;5387;48.722;9.110;2022-12-20T10:45:44;8.40;99.90
10678;DHT22;5387;48.722;9.110;2022-12-20T10:48:29;8.40;99.90
10678;DHT22;5387;48.722;9.110;2022-12-20T10:50:58;8.40;99.90
10678;DHT22;5387;48.722;9.110;2022-12-20T10:53:26;8.50;99.90
10678;DHT22;5387;48.722;9.110;2022-12-20T10:56:03;8.40;99.90
10678;DHT22;5387;48.722;9.110;2022-12-20T10:58:34;8.50;99.90
10678;DHT22;5387;48.722;9.110;2022-12-20T11:01:10;8.60;99.90
10678;DHT22;5387;48.722;9.110;2022-12-20T11:03:51;8.70;99.90
10678;DHT22;5387;48.722;9.110;2022-12-20T11:06:20;8.70;99.90
10678;DHT22;5387;48.722;9.110;2022-12-20T11:08:48;8.90;99.90
10678;DHT22;5387;48.722;9.110;2022-12-20T11:11:17;8.80;99.90
10678;DHT22;5387;48.722;9.110;2022-12-20T11:13:45;8.90;99.90
10678;DHT22;5387;48.722;9.110;2022-12-20T11:16:28;8.80;99.90
10678;DHT22;5387;48.722;9.110;2022-12-20T11:19:07;8.90;99.90
10678;DHT22;5387;48.722;9.110;2022-12-20T11:21:43;9.00;99.90
10678;DHT22;5387;48.722;9.110;2022-12-20T11:24:19;8.90;99.90
10678;DHT22;5387;48.722;9.110;2022-12-20T11:27:00;8.80;99.90
10678;DHT22;5387;48.722;9.110;2022-12-20T11:29:43;9.00;99.90
10678;DHT22;5387;48.722;9.110;2022-12-20T11:32:23;9.10;99.90
10678;DHT22;5387;48.722;9.110;2022-12-20T11:34:57;9.20;99.90
10678;DHT22;5387;48.722;9.110;2022-12-20T11:37:27;9.20;99.90
10678;DHT22;5387;48.722;9.110;2022-12-20T11:40:17;9.20;99.90
10678;DHT22;5387;48.722;9.110;2022-12-20T11:42:53;9.30;99.90
10678;DHT22;5387;48.722;9.110;2022-12-20T11:45:29;9.20;99.90
10678;DHT22;5387;48.722;9.110;2022-12-20T11:51:02;9.20;99.90
10678;DHT22;5387;48.722;9.110;2022-12-20T11:53:36;9.10;99.90
10678;DHT22;5387;48.722;9.110;2022-12-20T11:56:08;9.10;99.90
10678;DHT22;5387;48.722;9.110;2022-12-20T11:58:46;9.20;99.90
10678;DHT22;5387;48.722;9.110;2022-12-20T12:01:17;9.10;99.90
10678;DHT22;5387;48.722;9.110;2022-12-20T12:03:54;9.20;99.90
10678;DHT22;5387;48.722;9.110;2022-12-20T12:06:26;9.20;99.90
10678;DHT22;5387;48.722;9.110;2022-12-20T12:09:05;9.20;99.90
10678;DHT22;5387;48.722;9.110;2022-12-20T12:11:36;9.40;99.90
10678;DHT22;5387;48.722;9.110;2022-12-20T12:14:05;9.30;99.90
10678;DHT22;5387;48.722;9.110;2022-12-20T12:16:34;9.30;99.90
10678;DHT22;5387;48.722;9.110;2022-12-20T12:19:04;9.30;99.90
10678;DHT22;5387;48.722;9.110;2022-12-20T12:21:38;9.40;99.90
10678;DHT22;5387;48.722;9.110;2022-12-20T12:24:13;9.50;99.90
10678;DHT22;5387;48.722;9.110;2022-12-20T12:26:44;9.60;99.90
10678;DHT22;5387;48.722;9.110;2022-12-20T12:29:13;9.60;99.90
10678;DHT22;5387;48.722;9.110;2022-12-20T12:31:43;9.70;99.90
10678;DHT22;5387;48.722;9.110;2022-12-20T12:34:27;9.70;99.90
10678;DHT22;5387;48.722;9.110;2022-12-20T12:40:17;9.70;99.90
10678;DHT22;5387;48.722;9.110;2022-12-20T12:43:10;9.60;99.90
10678;DHT22;5387;48.722;9.110;2022-12-20T12:45:43;9.70;99.90
10678;DHT22;5387;48.722;9.110;2022-12-20T12:48:14;9.80;99.90
10678;DHT22;5387;48.722;9.110;2022-12-20T12:50:45;9.80;99.90
10678;DHT22;5387;48.722;9.110;2022-12-20T12:53:16;9.80;99.90
10678;DHT22;5387;48.722;9.110;2022-12-20T12:55:44;9.90;99.90
10678;DHT22;5387;48.722;9.110;2022-12-20T13:01:08;10.00;99.90
10678;DHT22;5387;48.722;9.110;2022-12-20T13:03:44;10.00;99.90
10678;DHT22;5387;48.722;9.110;2022-12-20T13:06:52;10.00;99.90
10678;DHT22;5387;48.722;9.110;2022-12-20T13:09:39;9.90;99.90
10678;DHT22;5387;48.722;9.110;2022-12-20T13:18:22;9.70;99.90
10678;DHT22;5387;48.722;9.110;2022-12-20T13:21:16;9.70;99.90
10678;DHT22;5387;48.722;9.110;2022-12-20T13:23:44;9.70;99.90
10678;DHT22;5387;48.722;9.110;2022-12-20T13:26:47;9.70;99.90
10678;DHT22;5387;48.722;9.110;2022-12-20T13:29:34;9.50;99.90
10678;DHT22;5387;48.722;9.110;2022-12-20T13:32:02;9.50;99.90
10678;DHT22;5387;48.722;9.110;2022-12-20T13:34:53;9.40;99.90
10678;DHT22;5387;48.722;9.110;2022-12-20T13:37:28;9.40;99.90
10678;DHT22;5387;48.722;9.110;2022-12-20T13:40:05;9.40;99.90
10678;DHT22;5387;48.722;9.110;2022-12-20T13:42:47;9.50;99.90
10678;DHT22;5387;48.722;9.110;2022-12-20T13:45:18;9.50;99.90
10678;DHT22;5387;48.722;9.110;2022-12-20T13:47:48;9.50;99.90
10678;DHT22;5387;48.722;9.110;2022-12-20T13:50:26;9.40;99.90
10678;DHT22;5387;48.722;9.110;2022-12-20T13:52:53;9.30;99.90
10678;DHT22;5387;48.722;9.110;2022-12-20T13:55:31;9.30;99.90
10678;DHT22;5387;48.722;9.110;2022-12-20T13:58:05;9.30;99.90
10678;DHT22;5387;48.722;9.110;2022-12-20T14:00:33;9.40;99.90
10678;DHT22;5387;48.722;9.110;2022-12-20T14:03:00;9.30;99.90
10678;DHT22;5387;48.722;9.110;2022-12-20T14:05:31;9.40;99.90
10678;DHT22;5387;48.722;9.110;2022-12-20T14:08:01;9.50;99.90
10678;DHT22;5387;48.722;9.110;2022-12-20T14:10:30;9.50;99.90
10678;DHT22;5387;48.722;9.110;2022-12-20T14:12:57;9.50;99.90
10678;DHT22;5387;48.722;9.110;2022-12-20T14:15:28;9.70;99.90
10678;DHT22;5387;48.722;9.110;2022-12-20T14:17:55;9.70;99.90
10678;DHT22;5387;48.722;9.110;2022-12-20T14:20:27;9.80;99.90
10678;DHT22;5387;48.722;9.110;2022-12-20T14:22:58;9.90;99.90
10678;DHT22;5387;48.722;9.110;2022-12-20T14:25:33;9.80;99.90
10678;DHT22;5387;48.722;9.110;2022-12-20T14:28:01;9.70;99.90
10678;DHT22;5387;48.722;9.110;2022-12-20T14:30:33;9.60;99.90
10678;DHT22;5387;48.722;9.110;2022-12-20T14:33:01;9.60;99.90
10678;DHT22;5387;48.722;9.110;2022-12-20T14:35:28;9.60;99.90
10678;DHT22;5387;48.722;9.110;2022-12-20T14:37:57;9.50;99.90
10678;DHT22;5387;48.722;9.110;2022-12-20T14:40:26;9.50;99.90
10678;DHT22;5387;48.722;9.110;2022-12-20T14:42:53;9.40;99.90
10678;DHT22;5387;48.722;9.110;2022-12-20T14:45:23;9.40;99.90
10678;DHT22;5387;48.722;9.110;2022-12-20T14:47:59;9.40;99.90
10678;DHT22;5387;48.722;9.110;2022-12-20T14:50:30;9.40;99.90
10678;DHT22;5387;48.722;9.110;2022-12-20T14:52:58;9.50;99.90
10678;DHT22;5387;48.722;9.110;2022-12-20T14:55:32;9.40;99.90
10678;DHT22;5387;48.722;9.110;2022-12-20T14:58:04;9.40;99.90
10678;DHT22;5387;48.722;9.110;2022-12-20T15:00:33;9.40;99.90
10678;DHT22;5387;48.722;9.110;2022-12-20T15:03:10;9.40;99.90
10678;DHT22;5387;48.722;9.110;2022-12-20T15:05:45;9.40;99.90
10678;DHT22;5387;48.722;9.110;2022-12-20T15:08:15;9.40;99.90
10678;DHT22;5387;48.722;9.110;2022-12-20T15:10:47;9.40;99.90
10678;DHT22;5387;48.722;9.110;2022-12-20T15:13:17;9.50;99.90
10678;DHT22;5387;48.722;9.110;2022-12-20T15:15:44;9.30;99.90
10678;DHT22;5387;48.722;9.110;2022-12-20T15:18:13;9.30;99.90
10678;DHT22;5387;48.722;9.110;2022-12-20T15:20:41;9.20;99.90
10678;DHT22;5387;48.722;9.110;2022-12-20T15:23:13;9.10;99.90
10678;DHT22;5387;48.722;9.110;2022-12-20T15:25:40;9.10;99.90
10678;DHT22;5387;48.722;9.110;2022-12-20T15:28:13;9.10;99.90
10678;DHT22;5387;48.722;9.110;2022-12-20T15:30:40;9.00;99.90
10678;DHT22;5387;48.722;9.110;2022-12-20T15:33:14;8.90;99.90
10678;DHT22;5387;48.722;9.110;2022-12-20T15:35:42;8.80;99.90
10678;DHT22;5387;48.722;9.110;2022-12-20T15:38:12;8.70;99.90
10678;DHT22;5387;48.722;9.110;2022-12-20T15:40:41;8.70;99.90
10678;DHT22;5387;48.722;9.110;2022-12-20T15:43:11;8.60;99.90
10678;DHT22;5387;48.722;9.110;2022-12-20T15:45:38;8.60;99.90
10678;DHT22;5387;48.722;9.110;2022-12-20T15:48:11;8.50;99.90
10678;DHT22;5387;48.722;9.110;2022-12-20T15:50:41;8.50;99.90
10678;DHT22;5387;48.722;9.110;2022-12-20T15:53:12;8.40;99.90
10678;DHT22;5387;48.722;9.110;2022-12-20T15:55:39;8.50;99.90
10678;DHT22;5387;48.722;9.110;2022-12-20T15:58:07;8.40;99.90
10678;DHT22;5387;48.722;9.110;2022-12-20T16:00:40;8.40;99.90
10678;DHT22;5387;48.722;9.110;2022-12-20T16:03:13;8.30;99.90
10678;DHT22;5387;48.722;9.110;2022-12-20T16:05:41;8.30;99.90
10678;DHT22;5387;48.722;9.110;2022-12-20T16:08:08;8.50;99.90
10678;DHT22;5387;48.722;9.110;2022-12-20T16:10:35;8.40;99.90
10678;DHT22;5387;48.722;9.110;2022-12-20T16:13:02;8.40;99.90
10678;DHT22;5387;48.722;9.110;2022-12-20T16:15:29;8.40;99.90
10678;DHT22;5387;48.722;9.110;2022-12-20T16:17:56;8.30;99.90
10678;DHT22;5387;48.722;9.110;2022-12-20T16:20:22;8.40;99.90
10678;DHT22;5387;48.722;9.110;2022-12-20T16:22:53;8.30;99.90
10678;DHT22;5387;48.722;9.110;2022-12-20T16:25:24;8.40;99.90
10678;DHT22;5387;48.722;9.110;2022-12-20T16:27:51;8.50;99.90
10678;DHT22;5387;48.722;9.110;2022-12-20T16:30:18;8.40;99.90
10678;DHT22;5387;48.722;9.110;2022-12-20T16:32:45;8.50;99.90
10678;DHT22;5387;48.722;9.110;2022-12-20T16:35:24;8.40;99.90
10678;DHT22;5387;48.722;9.110;2022-12-20T16:37:53;8.50;99.90
10678;DHT22;5387;48.722;9.110;2022-12-20T16:40:22;8.50;99.90